Time;durP1;ratioP1;P1;durP2;ratioP2;P2;SDS_P1;SDS_P2;PMS_P1;PMS_P2;Temp;Humidity;BMP_temperature;BMP_pressure;BME280_temperature;BME280_humidity;BME280_pressure;Samples;Min_cycle;Max_cycle;Signal;HPM_P1;HPM_P2
2024/02/03 00:00:28;;;;;;;10.07;4.72;;;;;;;;;;5069937;28;20028;-76
2024/02/03 00:02:53;;;;;;;10.52;5.18;;;;;;;;;;5082708;28;20063;-75
2024/02/03 00:05:18;;;;;;;11.43;5.30;;;;;;;;;;5072422;28;20052;-76
2024/02/03 00:07:44;;;;;;;10.80;4.90;;;;;;;;;;5072371;28;20104;-75
2024/02/03 00:10:09;;;;;;;11.55;5.13;;;;;;;;;;5075448;28;20481;-75
2024/02/03 00:12:35;;;;;;;11.45;4.95;;;;;;;;;;5072211;28;20032;-76
2024/02/03 00:15:00;;;;;;;13.25;4.75;;;;;;;;;;5073729;28;20020;-75
2024/02/03 00:17:25;;;;;;;15.57;5.47;;;;;;;;;;5076069;28;20044;-75
2024/02/03 00:19:53;;;;;;;9.48;4.53;;;;;;;;;;5075008;28;20428;-75
2024/02/03 00:22:18;;;;;;;10.70;5.00;;;;;;;;;;5078345;28;20032;-75
2024/02/03 00:24:44;;;;;;;9.38;5.00;;;;;;;;;;5073041;28;20043;-75
2024/02/03 00:27:09;;;;;;;12.13;5.30;;;;;;;;;;5072143;28;20032;-76
2024/02/03 00:29:34;;;;;;;10.68;5.63;;;;;;;;;;5075010;28;20409;-75
2024/02/03 00:31:59;;;;;;;10.35;4.75;;;;;;;;;;5075331;28;20028;-75
2024/02/03 00:34:24;;;;;;;11.85;4.85;;;;;;;;;;5073822;28;20036;-76
2024/02/03 00:36:50;;;;;;;10.77;4.63;;;;;;;;;;5071853;28;20025;-75
2024/02/03 00:39:16;;;;;;;11.00;5.20;;;;;;;;;;5074501;28;20086;-74
2024/02/03 00:41:41;;;;;;;9.45;4.22;;;;;;;;;;5070997;28;20036;-76
2024/02/03 00:44:06;;;;;;;11.88;4.93;;;;;;;;;;5080653;28;20034;-75
2024/02/03 00:46:31;;;;;;;11.88;4.93;;;;;;;;;;5074493;28;20028;-74
2024/02/03 00:48:57;;;;;;;11.50;4.50;;;;;;;;;;5075284;28;20104;-75
2024/02/03 00:51:22;;;;;;;13.45;5.07;;;;;;;;;;5073256;28;20020;-75
2024/02/03 00:53:47;;;;;;;13.48;4.78;;;;;;;;;;5072589;28;20029;-75
2024/02/03 00:56:12;;;;;;;11.40;4.95;;;;;;;;;;5071827;28;20032;-75
2024/02/03 00:58:37;;;;;;;9.30;4.78;;;;;;;;;;5074270;28;20084;-75
2024/02/03 01:01:03;;;;;;;7.57;4.10;;;;;;;;;;5071095;28;20431;-75
2024/02/03 01:03:29;;;;;;;9.48;4.82;;;;;;;;;;5076138;28;20032;-75
2024/02/03 01:05:54;;;;;;;10.15;4.47;;;;;;;;;;5075405;28;20039;-75
2024/02/03 01:08:19;;;;;;;10.30;4.88;;;;;;;;;;5078859;28;20032;-76
2024/02/03 01:10:45;;;;;;;10.15;5.03;;;;;;;;;;5072271;28;20116;-75
2024/02/03 01:13:10;;;;;;;11.40;5.03;;;;;;;;;;5070916;28;20060;-75
2024/02/03 01:15:35;;;;;;;8.80;4.55;;;;;;;;;;5071260;28;20056;-75
2024/02/03 01:18:02;;;;;;;10.13;4.93;;;;;;;;;;5071120;28;20029;-76
2024/02/03 01:20:28;;;;;;;8.75;5.00;;;;;;;;;;5073182;28;20036;-75
2024/02/03 01:22:53;;;;;;;10.93;5.18;;;;;;;;;;5070868;28;20554;-76
2024/02/03 01:25:18;;;;;;;10.55;4.60;;;;;;;;;;5075010;28;20059;-76
2024/02/03 01:27:43;;;;;;;12.25;5.22;;;;;;;;;;5071688;28;20550;-76
2024/02/03 01:30:09;;;;;;;14.68;5.38;;;;;;;;;;5072901;28;20020;-76
2024/02/03 01:32:34;;;;;;;15.15;5.97;;;;;;;;;;5077672;28;20385;-76
2024/02/03 01:34:59;;;;;;;9.80;5.35;;;;;;;;;;5072465;28;20082;-76
2024/02/03 01:37:25;;;;;;;9.50;5.45;;;;;;;;;;5070873;28;20052;-76
2024/02/03 01:39:51;;;;;;;13.18;5.65;;;;;;;;;;5072462;28;20404;-75
2024/02/03 01:42:16;;;;;;;12.35;5.13;;;;;;;;;;5070589;28;20024;-76
2024/02/03 01:44:42;;;;;;;14.23;5.55;;;;;;;;;;5070270;28;20484;-76
2024/02/03 01:47:07;;;;;;;9.98;5.25;;;;;;;;;;5074228;28;20451;-76
2024/02/03 01:49:33;;;;;;;10.13;5.45;;;;;;;;;;5072089;28;20080;-76
2024/02/03 01:51:58;;;;;;;11.02;5.70;;;;;;;;;;5070616;28;20463;-76
2024/02/03 01:54:25;;;;;;;7.70;4.80;;;;;;;;;;5070154;28;20032;-76
2024/02/03 01:56:51;;;;;;;9.52;5.50;;;;;;;;;;5070395;28;20501;-76
2024/02/03 01:59:16;;;;;;;10.50;6.25;;;;;;;;;;5072025;28;20024;-76
2024/02/03 02:01:42;;;;;;;12.85;6.00;;;;;;;;;;5071080;28;20048;-76
2024/02/03 02:04:07;;;;;;;8.27;5.55;;;;;;;;;;5073034;28;20115;-76
2024/02/03 02:06:32;;;;;;;11.60;6.22;;;;;;;;;;5074844;28;20507;-76
2024/02/03 02:08:57;;;;;;;12.30;6.55;;;;;;;;;;5078119;28;20154;-76
2024/02/03 02:11:24;;;;;;;13.23;6.25;;;;;;;;;;5069934;28;20073;-76
2024/02/03 02:13:49;;;;;;;12.60;7.40;;;;;;;;;;5072924;28;20158;-75
2024/02/03 02:16:14;;;;;;;14.40;6.70;;;;;;;;;;5071318;28;20058;-76
2024/02/03 02:18:39;;;;;;;14.10;6.63;;;;;;;;;;5080250;28;20099;-76
2024/02/03 02:21:05;;;;;;;12.52;6.38;;;;;;;;;;5076089;28;20040;-76
2024/02/03 02:23:30;;;;;;;11.52;6.57;;;;;;;;;;5069583;28;20115;-75
2024/02/03 02:25:57;;;;;;;9.98;6.18;;;;;;;;;;5073004;28;20074;-75
2024/02/03 02:28:22;;;;;;;9.57;5.72;;;;;;;;;;5070686;28;20492;-75
2024/02/03 02:30:47;;;;;;;12.95;6.72;;;;;;;;;;5075308;28;20039;-75
2024/02/03 02:33:12;;;;;;;10.50;6.70;;;;;;;;;;5077143;28;20480;-75
2024/02/03 02:35:38;;;;;;;12.13;7.05;;;;;;;;;;5069985;28;20024;-75
2024/02/03 02:38:03;;;;;;;12.70;6.25;;;;;;;;;;5070136;28;20442;-75
2024/02/03 02:40:28;;;;;;;12.77;6.40;;;;;;;;;;5070953;28;20033;-75
2024/02/03 02:42:54;;;;;;;13.75;7.63;;;;;;;;;;5069616;28;20103;-76
2024/02/03 02:45:20;;;;;;;12.57;6.68;;;;;;;;;;5069746;28;20446;-75
2024/02/03 02:47:45;;;;;;;14.27;6.85;;;;;;;;;;5069883;28;20089;-76
2024/02/03 02:50:10;;;;;;;12.25;6.70;;;;;;;;;;5070834;28;20029;-76
2024/02/03 02:52:35;;;;;;;12.90;6.88;;;;;;;;;;5069561;28;20169;-76
2024/02/03 02:55:01;;;;;;;13.27;7.30;;;;;;;;;;5069615;28;20044;-76
2024/02/03 02:57:26;;;;;;;11.52;6.13;;;;;;;;;;5069905;28;20277;-76
2024/02/03 02:59:51;;;;;;;10.63;6.60;;;;;;;;;;5077886;28;20029;-75
2024/02/03 03:02:17;;;;;;;11.60;6.78;;;;;;;;;;5079496;28;20277;-75
2024/02/03 03:04:42;;;;;;;13.30;6.95;;;;;;;;;;5074495;28;20040;-76
2024/02/03 03:07:08;;;;;;;11.10;6.57;;;;;;;;;;5076023;28;20028;-76
2024/02/03 03:09:33;;;;;;;11.93;7.00;;;;;;;;;;5073847;28;20029;-76
2024/02/03 03:11:58;;;;;;;10.88;6.78;;;;;;;;;;5076107;28;20029;-75
2024/02/03 03:14:23;;;;;;;10.35;6.78;;;;;;;;;;5073452;28;20511;-76
2024/02/03 03:16:49;;;;;;;11.20;6.78;;;;;;;;;;5073585;28;20077;-76
2024/02/03 03:19:14;;;;;;;11.63;6.28;;;;;;;;;;5074330;28;20029;-75
2024/02/03 03:21:39;;;;;;;11.48;6.93;;;;;;;;;;5072853;28;20021;-76
2024/02/03 03:24:05;;;;;;;11.88;6.95;;;;;;;;;;5072559;28;20074;-75
2024/02/03 03:26:30;;;;;;;10.23;5.68;;;;;;;;;;5073256;28;20119;-75
2024/02/03 03:28:55;;;;;;;10.02;6.38;;;;;;;;;;5072639;28;20060;-76
2024/02/03 03:31:21;;;;;;;10.90;6.80;;;;;;;;;;5075227;28;20033;-76
2024/02/03 03:33:46;;;;;;;13.18;6.85;;;;;;;;;;5075973;28;20040;-75
2024/02/03 03:36:12;;;;;;;10.45;6.53;;;;;;;;;;5077742;28;20048;-76
2024/02/03 03:38:42;;;;;;;12.63;6.90;;;;;;;;;;5078662;28;20020;-76
2024/02/03 03:41:11;;;;;;;11.80;6.00;;;;;;;;;;5078760;28;20100;-76
2024/02/03 03:43:36;;;;;;;10.68;6.05;;;;;;;;;;5072900;28;20034;-76
2024/02/03 03:46:01;;;;;;;12.35;5.50;;;;;;;;;;5081662;28;20106;-76
2024/02/03 03:48:27;;;;;;;10.00;6.43;;;;;;;;;;5071654;28;20027;-76
2024/02/03 03:50:52;;;;;;;10.82;6.22;;;;;;;;;;5072851;28;20546;-76
2024/02/03 03:53:17;;;;;;;10.18;5.72;;;;;;;;;;5071127;28;20031;-76
2024/02/03 03:55:42;;;;;;;10.48;6.43;;;;;;;;;;5072601;28;20393;-75
2024/02/03 03:58:07;;;;;;;9.10;5.70;;;;;;;;;;5072729;28;20032;-76
2024/02/03 04:00:32;;;;;;;9.27;6.27;;;;;;;;;;5072555;28;20777;-75
2024/02/03 04:02:57;;;;;;;10.20;5.65;;;;;;;;;;5080817;28;20286;-76
2024/02/03 04:05:25;;;;;;;8.55;5.40;;;;;;;;;;5081351;28;20493;-75
2024/02/03 04:07:50;;;;;;;9.32;5.55;;;;;;;;;;5084895;28;20039;-76
2024/02/03 04:10:15;;;;;;;10.23;6.13;;;;;;;;;;5074197;28;20021;-76
2024/02/03 04:12:41;;;;;;;9.52;5.85;;;;;;;;;;5094907;28;20038;-76
2024/02/03 04:15:06;;;;;;;9.73;5.75;;;;;;;;;;5089312;28;20517;-76
2024/02/03 04:17:31;;;;;;;9.98;6.90;;;;;;;;;;5090603;28;20024;-75
2024/02/03 04:19:56;;;;;;;9.80;6.20;;;;;;;;;;5090651;28;20024;-75
2024/02/03 04:22:22;;;;;;;10.05;6.10;;;;;;;;;;5092178;28;20027;-76
2024/02/03 04:24:47;;;;;;;9.75;6.35;;;;;;;;;;5091480;28;20042;-75
2024/02/03 04:27:12;;;;;;;10.35;6.68;;;;;;;;;;5092804;28;20035;-75
2024/02/03 04:29:37;;;;;;;10.02;5.63;;;;;;;;;;5087185;28;20099;-76
2024/02/03 04:32:02;;;;;;;10.37;5.87;;;;;;;;;;5079267;28;20024;-76
2024/02/03 04:34:28;;;;;;;9.90;5.60;;;;;;;;;;5073268;28;20320;-76
2024/02/03 04:36:53;;;;;;;8.75;6.13;;;;;;;;;;5072252;28;20025;-76
2024/02/03 04:39:18;;;;;;;9.75;6.18;;;;;;;;;;5077766;28;20027;-75
2024/02/03 04:41:43;;;;;;;9.23;6.15;;;;;;;;;;5073003;28;20033;-76
2024/02/03 04:44:08;;;;;;;8.83;5.53;;;;;;;;;;5071518;28;20040;-76
2024/02/03 04:46:33;;;;;;;9.77;5.35;;;;;;;;;;5071769;28;20285;-76
2024/02/03 04:48:59;;;;;;;10.48;6.40;;;;;;;;;;5074843;28;20032;-76
2024/02/03 04:51:24;;;;;;;7.43;4.78;;;;;;;;;;5076464;28;20024;-76
2024/02/03 04:53:49;;;;;;;11.07;5.80;;;;;;;;;;5071182;28;20123;-76
2024/02/03 04:56:15;;;;;;;9.07;5.63;;;;;;;;;;5072599;28;20470;-76
2024/02/03 04:58:40;;;;;;;8.93;4.95;;;;;;;;;;5072003;28;20123;-76
2024/02/03 05:01:05;;;;;;;8.55;5.03;;;;;;;;;;5076166;28;20033;-76
2024/02/03 05:03:31;;;;;;;8.80;5.78;;;;;;;;;;5075792;28;20035;-76
2024/02/03 05:06:00;;;;;;;8.15;5.32;;;;;;;;;;5071612;28;20078;-75
2024/02/03 05:08:25;;;;;;;8.48;5.22;;;;;;;;;;5071507;28;20020;-75
2024/02/03 05:10:50;;;;;;;9.02;5.18;;;;;;;;;;5077092;28;20028;-76
2024/02/03 05:13:15;;;;;;;7.72;5.05;;;;;;;;;;5070897;28;20512;-76
2024/02/03 05:15:41;;;;;;;8.73;5.30;;;;;;;;;;5071116;28;20029;-75
2024/02/03 05:18:06;;;;;;;8.63;4.72;;;;;;;;;;5078402;28;20028;-76
2024/02/03 05:20:31;;;;;;;8.95;5.13;;;;;;;;;;5078178;28;20033;-76
2024/02/03 05:22:56;;;;;;;8.35;5.35;;;;;;;;;;5069785;28;20029;-76
2024/02/03 05:25:21;;;;;;;8.18;5.25;;;;;;;;;;5070667;28;20396;-76
2024/02/03 05:27:47;;;;;;;9.93;5.78;;;;;;;;;;5070793;28;20036;-76
2024/02/03 05:30:12;;;;;;;7.75;4.70;;;;;;;;;;5075049;28;20016;-76
2024/02/03 05:32:37;;;;;;;8.32;5.63;;;;;;;;;;5077945;28;20455;-76
2024/02/03 05:35:03;;;;;;;9.00;5.43;;;;;;;;;;5072052;28;20382;-75
2024/02/03 05:37:28;;;;;;;7.72;4.75;;;;;;;;;;5070986;28;20031;-75
2024/02/03 05:39:53;;;;;;;7.88;5.07;;;;;;;;;;5075543;28;20036;-76
2024/02/03 05:42:18;;;;;;;7.93;5.07;;;;;;;;;;5070577;28;20449;-77
2024/02/03 05:44:43;;;;;;;8.48;5.07;;;;;;;;;;5070280;28;20031;-75
2024/02/03 05:47:08;;;;;;;9.85;5.38;;;;;;;;;;5070779;28;20039;-75
2024/02/03 05:49:34;;;;;;;8.82;5.25;;;;;;;;;;5078575;28;20031;-75
2024/02/03 05:51:59;;;;;;;9.07;5.40;;;;;;;;;;5077206;28;20031;-76
2024/02/03 05:54:24;;;;;;;9.63;5.10;;;;;;;;;;5072906;28;20698;-75
2024/02/03 05:56:49;;;;;;;8.95;5.30;;;;;;;;;;5068874;28;20270;-75
2024/02/03 05:59:14;;;;;;;8.15;4.70;;;;;;;;;;5073882;28;20589;-75
2024/02/03 06:01:39;;;;;;;8.85;5.22;;;;;;;;;;5076443;28;20028;-75
2024/02/03 06:04:05;;;;;;;9.25;5.50;;;;;;;;;;5076386;28;20040;-75
2024/02/03 06:06:31;;;;;;;7.15;4.40;;;;;;;;;;5069575;28;20166;-75
2024/02/03 06:08:56;;;;;;;9.35;4.72;;;;;;;;;;5071562;28;20047;-76
2024/02/03 06:11:21;;;;;;;8.55;5.20;;;;;;;;;;5072420;28;20547;-76
2024/02/03 06:13:46;;;;;;;9.13;4.85;;;;;;;;;;5069852;28;20043;-76
2024/02/03 06:16:11;;;;;;;8.30;5.20;;;;;;;;;;5070374;28;20447;-75
2024/02/03 06:18:36;;;;;;;8.23;4.97;;;;;;;;;;5081243;28;20020;-75
2024/02/03 06:21:02;;;;;;;7.55;4.65;;;;;;;;;;5075217;28;20028;-75
2024/02/03 06:23:27;;;;;;;6.60;4.18;;;;;;;;;;5069688;28;20064;-76
2024/02/03 06:25:52;;;;;;;9.00;4.50;;;;;;;;;;5069782;28;20451;-76
2024/02/03 06:28:17;;;;;;;7.00;4.57;;;;;;;;;;5070328;28;20374;-75
2024/02/03 06:30:42;;;;;;;8.25;4.28;;;;;;;;;;5076245;28;20392;-75
2024/02/03 06:33:08;;;;;;;6.70;4.28;;;;;;;;;;5075835;28;20062;-75
2024/02/03 06:35:33;;;;;;;7.63;4.33;;;;;;;;;;5079933;28;20052;-76
2024/02/03 06:37:59;;;;;;;8.35;4.72;;;;;;;;;;5072859;28;20307;-76
2024/02/03 06:40:24;;;;;;;6.18;4.00;;;;;;;;;;5080833;28;20515;-76
2024/02/03 06:42:49;;;;;;;8.65;4.45;;;;;;;;;;5073430;28;20032;-76
2024/02/03 06:45:15;;;;;;;6.55;4.05;;;;;;;;;;5077821;28;20024;-76
2024/02/03 06:47:41;;;;;;;6.90;4.10;;;;;;;;;;5080073;28;20032;-76
2024/02/03 06:50:07;;;;;;;8.05;3.95;;;;;;;;;;5077548;28;20019;-76
2024/02/03 06:52:32;;;;;;;7.18;4.03;;;;;;;;;;5074899;28;20024;-76
2024/02/03 06:54:58;;;;;;;6.80;4.10;;;;;;;;;;5073662;28;20081;-76
2024/02/03 06:57:23;;;;;;;6.32;4.00;;;;;;;;;;5073998;28;20893;-75
2024/02/03 06:59:48;;;;;;;8.38;4.00;;;;;;;;;;5074697;28;20136;-75
2024/02/03 07:02:13;;;;;;;7.15;4.13;;;;;;;;;;5069836;28;20093;-75
2024/02/03 07:04:39;;;;;;;10.07;4.68;;;;;;;;;;5071592;28;20027;-76
2024/02/03 07:07:05;;;;;;;6.40;3.60;;;;;;;;;;5080157;28;20392;-76
2024/02/03 07:09:30;;;;;;;6.03;3.83;;;;;;;;;;5080460;28;20025;-75
2024/02/03 07:11:55;;;;;;;6.80;4.25;;;;;;;;;;5085141;28;20038;-76
2024/02/03 07:14:20;;;;;;;8.82;4.53;;;;;;;;;;5087198;28;20043;-76
2024/02/03 07:16:45;;;;;;;7.88;3.97;;;;;;;;;;5084332;28;20036;-76
2024/02/03 07:19:11;;;;;;;6.50;4.25;;;;;;;;;;5084335;28;20032;-75
2024/02/03 07:21:36;;;;;;;7.13;4.30;;;;;;;;;;5080585;28;20032;-76
2024/02/03 07:24:01;;;;;;;7.75;4.28;;;;;;;;;;5080807;28;20141;-75
2024/02/03 07:26:26;;;;;;;6.93;4.10;;;;;;;;;;5083391;28;20115;-76
2024/02/03 07:28:51;;;;;;;5.78;3.65;;;;;;;;;;5086049;28;20032;-76
2024/02/03 07:31:29;;;;;;;5.95;3.47;;;;;;;;;;5084038;28;20070;-76
2024/02/03 07:33:56;;;;;;;6.15;3.67;;;;;;;;;;5081265;28;20024;-76
2024/02/03 07:36:22;;;;;;;5.18;3.33;;;;;;;;;;5078948;28;20413;-76
2024/02/03 07:38:47;;;;;;;6.85;3.58;;;;;;;;;;5079503;28;20123;-76
2024/02/03 07:41:14;;;;;;;5.63;3.53;;;;;;;;;;5083584;28;20470;-75
2024/02/03 07:43:39;;;;;;;6.00;3.20;;;;;;;;;;5084884;28;20092;-76
2024/02/03 07:46:04;;;;;;;5.53;3.03;;;;;;;;;;5082319;28;20025;-76
2024/02/03 07:48:29;;;;;;;6.78;3.40;;;;;;;;;;5082960;28;20393;-76
2024/02/03 07:50:55;;;;;;;5.55;2.90;;;;;;;;;;5080282;28;20024;-76
2024/02/03 07:53:20;;;;;;;6.07;3.22;;;;;;;;;;5087581;28;20248;-76
2024/02/03 07:55:45;;;;;;;6.10;3.55;;;;;;;;;;5085086;28;20030;-76
2024/02/03 07:58:10;;;;;;;4.90;2.80;;;;;;;;;;5081565;28;20762;-76
2024/02/03 08:00:35;;;;;;;5.10;3.08;;;;;;;;;;5080451;28;20063;-75
2024/02/03 08:03:00;;;;;;;5.75;3.10;;;;;;;;;;5074210;28;20036;-75
2024/02/03 08:05:26;;;;;;;4.55;2.58;;;;;;;;;;5075839;28;20059;-75
2024/02/03 08:07:51;;;;;;;5.28;3.17;;;;;;;;;;5072536;28;20028;-75
2024/02/03 08:10:16;;;;;;;4.82;3.05;;;;;;;;;;5076288;28;20044;-75
2024/02/03 08:12:41;;;;;;;5.90;2.95;;;;;;;;;;5072042;28;20020;-75
2024/02/03 08:15:07;;;;;;;5.57;2.72;;;;;;;;;;5072285;28;20162;-75
2024/02/03 08:17:32;;;;;;;5.90;2.40;;;;;;;;;;5072419;28;20025;-76
2024/02/03 08:19:57;;;;;;;4.38;2.45;;;;;;;;;;5080033;28;20054;-75
2024/02/03 08:22:23;;;;;;;5.00;2.70;;;;;;;;;;5060176;28;20396;-76
2024/02/03 08:24:48;;;;;;;4.80;2.85;;;;;;;;;;5085647;28;20032;-76
2024/02/03 08:27:13;;;;;;;3.85;2.30;;;;;;;;;;5077122;28;20040;-76
2024/02/03 08:29:39;;;;;;;5.30;2.30;;;;;;;;;;5076917;28;20035;-76
2024/02/03 08:32:04;;;;;;;5.63;2.73;;;;;;;;;;5072375;28;20035;-76
2024/02/03 08:34:29;;;;;;;4.78;2.20;;;;;;;;;;5071950;28;20647;-76
2024/02/03 08:36:54;;;;;;;4.68;2.58;;;;;;;;;;5071966;28;20111;-76
2024/02/03 08:39:20;;;;;;;3.88;2.28;;;;;;;;;;5075490;28;20101;-76
2024/02/03 08:41:45;;;;;;;4.93;2.38;;;;;;;;;;5074178;28;20025;-76
2024/02/03 08:44:10;;;;;;;4.38;2.65;;;;;;;;;;5071616;28;20116;-76
2024/02/03 08:46:35;;;;;;;3.07;2.00;;;;;;;;;;5070712;28;20031;-76
2024/02/03 08:49:00;;;;;;;4.70;2.27;;;;;;;;;;5071866;28;20329;-78
2024/02/03 08:51:25;;;;;;;3.95;1.98;;;;;;;;;;5083677;28;20271;-76
2024/02/03 08:53:51;;;;;;;4.45;2.00;;;;;;;;;;5079393;28;20068;-76
2024/02/03 08:56:17;;;;;;;3.90;2.10;;;;;;;;;;5079413;28;20022;-75
2024/02/03 08:58:42;;;;;;;5.53;2.30;;;;;;;;;;5080825;28;20029;-76
2024/02/03 09:01:08;;;;;;;4.20;2.43;;;;;;;;;;5083255;28;20032;-76
2024/02/03 09:03:33;;;;;;;6.13;1.80;;;;;;;;;;5085143;28;20286;-75
2024/02/03 09:05:58;;;;;;;3.28;1.88;;;;;;;;;;5082322;28;20485;-76
2024/02/03 09:08:23;;;;;;;3.70;1.90;;;;;;;;;;5079435;28;20024;-76
2024/02/03 09:10:48;;;;;;;3.30;1.67;;;;;;;;;;5078992;28;20757;-76
2024/02/03 09:13:13;;;;;;;3.65;2.08;;;;;;;;;;5082002;28;20020;-76
2024/02/03 09:15:39;;;;;;;3.80;1.70;;;;;;;;;;5084553;28;20089;-76
2024/02/03 09:18:04;;;;;;;4.03;2.20;;;;;;;;;;5083666;28;20267;-75
2024/02/03 09:20:29;;;;;;;4.35;2.08;;;;;;;;;;5079308;28;20036;-75
2024/02/03 09:22:54;;;;;;;3.20;1.70;;;;;;;;;;5087597;28;20148;-75
2024/02/03 09:25:19;;;;;;;3.63;1.60;;;;;;;;;;5077465;28;20024;-75
2024/02/03 09:27:45;;;;;;;3.10;1.60;;;;;;;;;;5076399;28;20059;-76
2024/02/03 09:30:11;;;;;;;3.17;1.60;;;;;;;;;;5075074;28;20036;-76
2024/02/03 09:32:36;;;;;;;4.45;2.00;;;;;;;;;;5071481;28;20389;-75
2024/02/03 09:35:02;;;;;;;3.10;1.73;;;;;;;;;;5070626;28;20025;-76
2024/02/03 09:37:27;;;;;;;4.18;2.10;;;;;;;;;;5072859;28;20024;-76
2024/02/03 09:39:52;;;;;;;4.10;1.83;;;;;;;;;;5077786;28;20108;-76
2024/02/03 09:42:18;;;;;;;3.20;1.48;;;;;;;;;;5081305;28;20605;-76
2024/02/03 09:44:43;;;;;;;4.22;1.85;;;;;;;;;;5085096;28;20035;-76
2024/02/03 09:47:13;;;;;;;3.53;1.70;;;;;;;;;;5087377;28;20071;-76
2024/02/03 09:49:38;;;;;;;3.92;1.95;;;;;;;;;;5083630;28;20020;-76
2024/02/03 09:52:04;;;;;;;3.88;1.90;;;;;;;;;;5082914;28;20039;-76
2024/02/03 09:54:29;;;;;;;3.70;1.90;;;;;;;;;;5081999;28;20024;-76
2024/02/03 09:56:54;;;;;;;4.90;2.05;;;;;;;;;;5082158;28;20122;-76
2024/02/03 09:59:20;;;;;;;2.58;1.45;;;;;;;;;;5086305;28;20032;-76
2024/02/03 10:01:46;;;;;;;2.60;1.40;;;;;;;;;;5086623;28;20069;-76
2024/02/03 10:04:12;;;;;;;3.22;1.40;;;;;;;;;;5085480;28;20032;-76
2024/02/03 10:06:37;;;;;;;3.10;1.23;;;;;;;;;;5084269;28;20028;-76
2024/02/03 10:09:04;;;;;;;1.63;0.88;;;;;;;;;;5078135;28;20032;-76
2024/02/03 10:11:36;;;;;;;6.72;2.80;;;;;;;;;;5082214;28;20035;-76
2024/02/03 10:14:02;;;;;;;3.08;1.40;;;;;;;;;;5086223;28;20051;-76
2024/02/03 10:16:27;;;;;;;3.72;1.17;;;;;;;;;;5087362;28;20028;-76
2024/02/03 10:18:52;;;;;;;3.90;1.55;;;;;;;;;;5085469;28;20117;-76
2024/02/03 10:21:18;;;;;;;2.45;1.25;;;;;;;;;;5080545;28;20492;-76
2024/02/03 10:23:52;;;;;;;2.22;1.00;;;;;;;;;;5078792;28;20077;-76
2024/02/03 10:26:17;;;;;;;2.22;1.15;;;;;;;;;;5084564;28;20035;-75
2024/02/03 10:28:44;;;;;;;6.13;1.38;;;;;;;;;;5087987;28;20028;-75
2024/02/03 10:31:09;;;;;;;3.53;1.38;;;;;;;;;;5084752;28;20097;-75
2024/02/03 10:33:34;;;;;;;2.15;1.17;;;;;;;;;;5084713;28;20028;-76
2024/02/03 10:36:01;;;;;;;2.90;1.10;;;;;;;;;;5084683;28;20119;-76
2024/02/03 10:38:26;;;;;;;2.15;0.95;;;;;;;;;;5085185;28;20278;-75
2024/02/03 10:40:52;;;;;;;3.10;1.13;;;;;;;;;;5086397;28;20028;-76
2024/02/03 10:43:18;;;;;;;2.95;1.02;;;;;;;;;;5087469;28;20039;-76
2024/02/03 10:45:44;;;;;;;1.63;0.85;;;;;;;;;;5084851;28;20031;-75
2024/02/03 10:48:13;;;;;;;2.85;1.00;;;;;;;;;;5082584;28;20475;-76
2024/02/03 10:50:43;;;;;;;2.03;1.00;;;;;;;;;;5072731;28;20020;-76
2024/02/03 10:53:11;;;;;;;2.30;1.15;;;;;;;;;;5073596;28;20052;-76
2024/02/03 10:55:38;;;;;;;2.92;1.10;;;;;;;;;;5070039;28;20033;-76
2024/02/03 10:58:04;;;;;;;2.75;1.15;;;;;;;;;;5069736;28;20520;-76
2024/02/03 11:00:29;;;;;;;2.63;1.30;;;;;;;;;;5071376;28;20033;-76
2024/02/03 11:02:58;;;;;;;3.40;1.52;;;;;;;;;;5069822;28;20047;-76
2024/02/03 11:05:26;;;;;;;3.10;1.02;;;;;;;;;;5069620;28;20025;-75
2024/02/03 11:07:52;;;;;;;1.77;0.95;;;;;;;;;;5069799;28;20445;-75
2024/02/03 11:10:17;;;;;;;2.33;1.38;;;;;;;;;;5072223;28;20029;-76
2024/02/03 11:12:42;;;;;;;2.03;1.10;;;;;;;;;;5069336;28;20027;-76
2024/02/03 11:15:11;;;;;;;2.10;0.95;;;;;;;;;;5069507;28;20036;-75
2024/02/03 11:17:36;;;;;;;1.80;0.88;;;;;;;;;;5070433;28;20032;-76
2024/02/03 11:20:06;;;;;;;3.15;0.90;;;;;;;;;;5076764;28;20021;-75
2024/02/03 11:22:31;;;;;;;4.75;1.27;;;;;;;;;;5078581;28;20118;-75
2024/02/03 11:24:56;;;;;;;3.92;1.33;;;;;;;;;;5081703;28;20572;-76
2024/02/03 11:27:22;;;;;;;1.92;0.90;;;;;;;;;;5075758;28;20029;-76
2024/02/03 11:29:47;;;;;;;1.63;0.77;;;;;;;;;;5075581;28;20032;-76
2024/02/03 11:32:14;;;;;;;1.88;0.80;;;;;;;;;;5073811;28;20120;-76
2024/02/03 11:34:40;;;;;;;2.13;0.88;;;;;;;;;;5059062;28;20035;-76
2024/02/03 11:37:06;;;;;;;1.88;0.73;;;;;;;;;;5078284;28;20024;-76
2024/02/03 11:39:31;;;;;;;4.00;1.13;;;;;;;;;;5079847;28;20635;-75
2024/02/03 11:41:57;;;;;;;1.33;0.70;;;;;;;;;;5074243;28;20040;-75
2024/02/03 11:44:22;;;;;;;2.90;0.90;;;;;;;;;;5071470;28;20700;-75
2024/02/03 11:46:47;;;;;;;1.73;0.77;;;;;;;;;;5072700;28;20086;-76
2024/02/03 11:49:13;;;;;;;1.85;0.70;;;;;;;;;;5073328;28;20027;-76
2024/02/03 11:51:38;;;;;;;1.35;0.60;;;;;;;;;;5076776;28;20021;-76
2024/02/03 11:54:04;;;;;;;1.70;0.75;;;;;;;;;;5072847;28;20532;-76
2024/02/03 11:56:29;;;;;;;1.52;0.63;;;;;;;;;;5075636;28;20039;-76
2024/02/03 11:58:55;;;;;;;1.40;0.52;;;;;;;;;;5071582;28;20039;-76
2024/02/03 12:01:20;;;;;;;2.63;0.57;;;;;;;;;;5074673;28;20035;-76
2024/02/03 12:03:45;;;;;;;2.35;0.70;;;;;;;;;;5073139;28;20044;-76
2024/02/03 12:06:10;;;;;;;2.10;0.98;;;;;;;;;;5072679;28;20037;-75
2024/02/03 12:08:36;;;;;;;1.70;0.80;;;;;;;;;;5072689;28;20017;-75
2024/02/03 12:11:01;;;;;;;1.75;0.60;;;;;;;;;;5074076;28;20165;-75
2024/02/03 12:13:33;;;;;;;2.72;0.60;;;;;;;;;;5072201;28;20028;-75
2024/02/03 12:15:58;;;;;;;1.67;0.70;;;;;;;;;;5072290;28;20032;-76
2024/02/03 12:18:23;;;;;;;2.72;0.73;;;;;;;;;;5072766;28;20032;-76
2024/02/03 12:20:48;;;;;;;1.42;0.60;;;;;;;;;;5074154;28;20028;-75
2024/02/03 12:23:14;;;;;;;2.08;0.70;;;;;;;;;;5072075;28;20472;-76
2024/02/03 12:25:39;;;;;;;1.40;0.70;;;;;;;;;;5075801;28;20036;-75
2024/02/03 12:28:05;;;;;;;1.90;0.70;;;;;;;;;;5073923;28;20421;-75
2024/02/03 12:30:35;;;;;;;2.00;0.40;;;;;;;;;;5074890;28;20090;-76
2024/02/03 12:33:00;;;;;;;1.38;0.70;;;;;;;;;;5072963;28;20040;-76
2024/02/03 12:35:26;;;;;;;1.67;0.57;;;;;;;;;;5077195;28;20024;-75
2024/02/03 12:37:51;;;;;;;2.25;0.70;;;;;;;;;;5074357;28;20404;-76
2024/02/03 12:40:16;;;;;;;1.65;0.50;;;;;;;;;;5073448;28;20086;-76
2024/02/03 12:42:41;;;;;;;0.90;0.50;;;;;;;;;;5071736;28;20067;-76
2024/02/03 12:45:07;;;;;;;2.17;0.68;;;;;;;;;;5071676;28;20035;-75
2024/02/03 12:47:35;;;;;;;0.77;0.40;;;;;;;;;;5072019;28;20016;-76
2024/02/03 12:50:01;;;;;;;2.13;0.40;;;;;;;;;;5073193;28;20028;-76
2024/02/03 12:52:27;;;;;;;1.90;0.60;;;;;;;;;;5071712;28;20491;-76
2024/02/03 12:54:53;;;;;;;0.98;0.45;;;;;;;;;;5071309;28;20036;-76
2024/02/03 12:57:18;;;;;;;0.95;0.60;;;;;;;;;;5071638;28;20039;-76
2024/02/03 12:59:43;;;;;;;2.67;0.60;;;;;;;;;;5072721;28;20192;-75
2024/02/03 13:02:08;;;;;;;1.90;0.60;;;;;;;;;;5076478;28;20413;-75
2024/02/03 13:04:34;;;;;;;1.70;0.70;;;;;;;;;;5071238;28;20031;-75
2024/02/03 13:06:59;;;;;;;1.13;0.60;;;;;;;;;;5071479;28;20050;-75
2024/02/03 13:09:24;;;;;;;1.45;0.60;;;;;;;;;;5071156;28;20025;-75
2024/02/03 13:11:49;;;;;;;1.33;0.57;;;;;;;;;;5072523;28;20060;-75
2024/02/03 13:14:14;;;;;;;2.60;0.80;;;;;;;;;;5070989;28;20278;-76
2024/02/03 13:16:40;;;;;;;1.17;0.60;;;;;;;;;;5071402;28;20027;-76
2024/02/03 13:19:05;;;;;;;1.88;0.50;;;;;;;;;;5071163;28;20483;-75
2024/02/03 13:21:30;;;;;;;1.50;0.50;;;;;;;;;;5081116;28;20040;-76
2024/02/03 13:23:55;;;;;;;2.43;0.87;;;;;;;;;;5067716;28;20024;-76
2024/02/03 13:26:21;;;;;;;2.05;0.50;;;;;;;;;;5070958;28;20278;-75
2024/02/03 13:28:47;;;;;;;0.98;0.60;;;;;;;;;;5070911;28;20033;-76
2024/02/03 13:31:12;;;;;;;1.70;0.63;;;;;;;;;;5071982;28;20040;-76
2024/02/03 13:33:37;;;;;;;1.55;0.85;;;;;;;;;;5071734;28;20432;-76
2024/02/03 13:36:02;;;;;;;1.35;0.68;;;;;;;;;;5070778;28;20036;-76
2024/02/03 13:38:27;;;;;;;2.45;1.23;;;;;;;;;;5070966;28;20044;-76
2024/02/03 13:40:53;;;;;;;2.28;1.10;;;;;;;;;;5071246;28;20032;-75
2024/02/03 13:43:18;;;;;;;2.58;1.20;;;;;;;;;;5069475;28;20115;-75
2024/02/03 13:45:44;;;;;;;2.28;1.27;;;;;;;;;;5070908;28;20036;-74
2024/02/03 13:48:09;;;;;;;2.85;1.20;;;;;;;;;;5074444;28;20020;-74
2024/02/03 13:50:34;;;;;;;2.08;0.90;;;;;;;;;;5071237;28;20032;-74
2024/02/03 13:53:00;;;;;;;2.78;1.08;;;;;;;;;;5070418;28;20071;-74
2024/02/03 13:55:26;;;;;;;1.83;0.90;;;;;;;;;;5070412;28;20028;-74
2024/02/03 13:57:51;;;;;;;3.25;1.27;;;;;;;;;;5070326;28;20512;-74
2024/02/03 14:00:16;;;;;;;1.88;1.00;;;;;;;;;;5070920;28;20037;-74
2024/02/03 14:02:41;;;;;;;2.42;0.90;;;;;;;;;;5071458;28;20659;-74
2024/02/03 14:05:07;;;;;;;1.40;0.70;;;;;;;;;;5070142;28;20460;-74
2024/02/03 14:07:32;;;;;;;1.77;0.90;;;;;;;;;;5070478;28;20043;-74
2024/02/03 14:09:57;;;;;;;3.85;1.02;;;;;;;;;;5072529;28;20523;-74
2024/02/03 14:12:23;;;;;;;1.58;0.90;;;;;;;;;;5071561;28;20025;-73
2024/02/03 14:14:48;;;;;;;1.27;0.63;;;;;;;;;;5069832;28;20028;-74
2024/02/03 14:17:13;;;;;;;1.50;0.57;;;;;;;;;;5070427;28;20420;-74
2024/02/03 14:19:39;;;;;;;1.50;0.60;;;;;;;;;;5069910;28;20040;-74
2024/02/03 14:22:04;;;;;;;1.52;0.60;;;;;;;;;;5077191;28;20036;-75
2024/02/03 14:24:30;;;;;;;1.30;0.65;;;;;;;;;;5079087;28;20038;-75
2024/02/03 14:26:55;;;;;;;1.20;0.65;;;;;;;;;;5070790;28;20055;-75
2024/02/03 14:29:21;;;;;;;2.03;0.50;;;;;;;;;;5069766;28;20043;-74